Weather History for KBVU - June, 2013

Change the Weather History Date:

Tuesday, June 25, 2013

  Actual Average (KLAS) Record (KLAS)
Temperature  
Mean Temperature 84 °F 90 °F  
Max Temperature 98 °F 102 °F 115 °F (1970)
Min Temperature 69 °F 78 °F 55 °F (1941)
Degree Days  
Heating Degree Days 0 0  
Month to date heating degree days 0  
Since 1 June heating degree days 0  
Since 1 July heating degree days 1950  
Cooling Degree Days 18 24  
Month to date cooling degree days 523  
Year to date cooling degree days 1073  
Since 1 June cooling degree days 523  
Growing Degree Days 34 (Base 50)    
Moisture  
Dew Point 43 °F    
Average Humidity 24    
Maximum Humidity 41    
Minimum Humidity 14    
Precipitation  
Precipitation 0.00 in 0.01 in 0.01 in (1954)
Month to date precipitation 0.06  
Year to date precipitation 2.07  
Snow  
Snow 0.00 in 0.00 in 0.00 in ()
Month to date snowfall 0.0  
Since 1 June snowfall 0.0  
Since 1 July snowfall 0.3  
Snow Depth -    
Sea Level Pressure  
Sea Level Pressure 29.87 in    
Wind  
Wind Speed 9 mph (SSE)    
Max Wind Speed 25 mph    
Max Gust Speed 31 mph    
Visibility 10 miles    
Events Thunderstorm    
T = Trace of Precipitation, MM = Missing Value Source: NWS Daily Summary

Daily Weather History Graph

Daily Weather History Graph

Search for Another Location

Airport or City:

Trip Planner

Search our weather history database for the weather conditions in past years. The results will help you decide how hot, cold, wet, or windy it might be!

Date:

Astronomy

Jun. 25, 2013 Rise Set
Actual Time 5:24 AM PDT 7:59 PM PDT
Civil Twilight 4:54 AM PDT 8:30 PM PDT
Nautical Twilight 4:16 AM PDT 9:07 PM PDT
Astronomical Twilight 3:34 AM PDT 9:49 PM PDT
Moon 9:54 PM PDT (6/25) 8:04 AM PDT (6/25)
Length of Visible Light 15h 36m
Length of Day
14h 35m
Waning Gibbous, 92% of the Moon is Illuminated
Jun 25
Waning Gibbous
Jun 29
Last Quarter
Jul 8
New
Jul 15
First Quarter
Jul 22
Full

Hourly Weather History & Observations

Time (PDT) Temp. Dew Point Humidity Pressure Visibility Wind Dir Wind Speed Gust Speed Precip Events Conditions
12:15 AM 80.6 °F 44.6 °F 28% 29.81 in 10.0 mi SSW 11.5 mph - N/A   Clear
12:35 AM 78.8 °F 44.6 °F 30% 29.81 in 10.0 mi SSW 9.2 mph - N/A   Clear
12:55 AM 77.0 °F 44.6 °F 32% 29.82 in 10.0 mi South 4.6 mph - N/A   Clear
1:15 AM 77.0 °F 44.6 °F 32% 29.82 in 10.0 mi SSW 8.1 mph - N/A   Clear
1:35 AM 77.0 °F 44.6 °F 32% 29.83 in 10.0 mi SSE 4.6 mph - N/A   Clear
1:55 AM 77.0 °F 44.6 °F 32% 29.83 in 10.0 mi South 4.6 mph - N/A   Clear
2:15 AM 75.2 °F 44.6 °F 34% 29.83 in 10.0 mi SSW 5.8 mph - N/A   Clear
2:35 AM 75.2 °F 44.6 °F 34% 29.84 in 10.0 mi Calm Calm - N/A   Clear
2:55 AM 75.2 °F 44.6 °F 34% 29.84 in 10.0 mi South 6.9 mph - N/A   Clear
3:15 AM 73.4 °F 44.6 °F 36% 29.84 in 10.0 mi SSW 11.5 mph - N/A   Clear
3:35 AM 73.4 °F 44.6 °F 36% 29.84 in 10.0 mi SSW 8.1 mph - N/A   Clear
3:55 AM 73.4 °F 44.6 °F 36% 29.85 in 10.0 mi Calm Calm - N/A   Clear
4:15 AM 73.4 °F 46.4 °F 38% 29.86 in 10.0 mi East 3.5 mph - N/A   Clear
4:35 AM 73.4 °F 44.6 °F 36% 29.86 in 10.0 mi Calm Calm - N/A   Clear
4:55 AM 73.4 °F 44.6 °F 36% 29.87 in 10.0 mi Calm Calm - N/A   Clear
5:15 AM 71.6 °F 46.4 °F 41% 29.87 in 10.0 mi ESE 6.9 mph - N/A   Clear
5:35 AM 73.4 °F 44.6 °F 36% 29.88 in 10.0 mi SW 3.5 mph - N/A   Clear
5:55 AM 69.8 °F 44.6 °F 40% 29.89 in 10.0 mi Calm Calm - N/A   Clear
6:15 AM 73.4 °F 46.4 °F 38% 29.89 in 10.0 mi Calm Calm - N/A   Clear
6:35 AM 75.2 °F 46.4 °F 36% 29.89 in 10.0 mi SW 3.5 mph - N/A   Clear
6:55 AM 77.0 °F 46.4 °F 34% 29.89 in 10.0 mi East 3.5 mph - N/A   Clear
7:15 AM 77.0 °F 46.4 °F 34% 29.90 in 10.0 mi South 3.5 mph - N/A   Clear
7:35 AM 77.0 °F 46.4 °F 34% 29.90 in 10.0 mi SE 4.6 mph - N/A   Clear
7:55 AM 80.6 °F 44.6 °F 28% 29.91 in 10.0 mi SE 4.6 mph - N/A   Clear
8:15 AM 80.6 °F 44.6 °F 28% 29.91 in 10.0 mi South 5.8 mph - N/A   Clear
8:35 AM 82.4 °F 44.6 °F 26% 29.92 in 10.0 mi SSE 10.4 mph - N/A   Clear
8:55 AM 82.4 °F 44.6 °F 26% 29.92 in 10.0 mi SW 8.1 mph - N/A   Clear
9:15 AM 84.2 °F 44.6 °F 25% 29.92 in 10.0 mi SSE 10.4 mph - N/A Thunderstorm Clear
9:35 AM 84.2 °F 44.6 °F 25% 29.92 in 10.0 mi SE 10.4 mph - N/A   Clear
9:55 AM 86.0 °F 44.6 °F 23% 29.92 in 10.0 mi South 11.5 mph - N/A   Clear
10:15 AM 86.0 °F 44.6 °F 23% 29.93 in 10.0 mi South 9.2 mph - N/A   Clear
10:35 AM 86.0 °F 44.6 °F 23% 29.92 in 10.0 mi SW 5.8 mph 18.4 mph N/A   Clear
10:55 AM 87.8 °F 46.4 °F 24% 29.92 in 10.0 mi SE 11.5 mph - N/A   Clear
11:15 AM 89.6 °F 46.4 °F 22% 29.92 in 10.0 mi SE 10.4 mph 19.6 mph N/A   Clear
11:35 AM 89.6 °F 44.6 °F 21% 29.91 in 10.0 mi South 13.8 mph - N/A Thunderstorm Clear
11:55 AM 89.6 °F 46.4 °F 22% 29.91 in 10.0 mi South 11.5 mph 16.1 mph N/A   Clear
12:15 PM 91.4 °F 44.6 °F 20% 29.91 in 10.0 mi ESE 11.5 mph 23.0 mph N/A   Clear
12:35 PM 93.2 °F 44.6 °F 19% 29.91 in 10.0 mi SE 16.1 mph 25.3 mph N/A Thunderstorm Clear
12:55 PM 93.2 °F 44.6 °F 19% 29.90 in 10.0 mi SE 15.0 mph 23.0 mph N/A Thunderstorm Clear
1:15 PM 93.2 °F 44.6 °F 19% 29.90 in 10.0 mi SE 16.1 mph 23.0 mph N/A   Clear
1:35 PM 93.2 °F 44.6 °F 19% 29.89 in 10.0 mi SE 17.3 mph 25.3 mph N/A   Clear
1:55 PM 93.2 °F 44.6 °F 19% 29.88 in 10.0 mi ESE 16.1 mph - N/A   Clear
2:15 PM 95.0 °F 42.8 °F 16% 29.87 in 10.0 mi SE 16.1 mph 21.9 mph N/A   Clear
2:35 PM 95.0 °F 42.8 °F 16% 29.87 in 10.0 mi SSE 17.3 mph 24.2 mph N/A   Clear
2:55 PM 96.8 °F 41.0 °F 15% 29.86 in 10.0 mi SSE 15.0 mph 24.2 mph N/A   Clear
3:15 PM 96.8 °F 41.0 °F 15% 29.85 in 10.0 mi SE 18.4 mph 23.0 mph N/A   Clear
3:35 PM 96.8 °F 41.0 °F 15% 29.85 in 10.0 mi SSE 17.3 mph 26.5 mph N/A Thunderstorm Clear
3:55 PM 98.6 °F 41.0 °F 14% 29.85 in 10.0 mi SSE 18.4 mph 28.8 mph N/A   Clear
4:15 PM 98.6 °F 41.0 °F 14% 29.84 in 10.0 mi SSE 20.7 mph 25.3 mph N/A   Clear
4:35 PM 98.6 °F 41.0 °F 14% 29.83 in 10.0 mi SSE 20.7 mph 24.2 mph N/A   Clear
4:55 PM 96.8 °F 39.2 °F 14% 29.83 in 10.0 mi SSE 23.0 mph 28.8 mph N/A   Clear
5:15 PM 96.8 °F 39.2 °F 14% 29.82 in 10.0 mi SE 25.3 mph 31.1 mph N/A   Clear
5:35 PM 95.0 °F 39.2 °F 14% 29.82 in 10.0 mi South 19.6 mph 28.8 mph N/A   Clear
5:55 PM 96.8 °F 39.2 °F 14% 29.82 in 10.0 mi SSE 21.9 mph 26.5 mph N/A   Clear
6:15 PM 95.0 °F 39.2 °F 14% 29.82 in 10.0 mi South 21.9 mph 25.3 mph N/A   Clear
6:35 PM 95.0 °F 39.2 °F 14% 29.82 in 10.0 mi SSE 17.3 mph 24.2 mph N/A   Clear
6:55 PM 95.0 °F 41.0 °F 15% 29.82 in 10.0 mi SE 19.6 mph 27.6 mph N/A   Clear
7:15 PM 95.0 °F 41.0 °F 15% 29.83 in 10.0 mi SSE 18.4 mph 25.3 mph N/A   Clear
7:35 PM 93.2 °F 39.2 °F 15% 29.83 in 10.0 mi SSE 12.7 mph 31.1 mph N/A   Clear
7:55 PM 93.2 °F 39.2 °F 15% 29.84 in 10.0 mi South 13.8 mph 17.3 mph N/A   Clear
8:15 PM 91.4 °F 41.0 °F 17% 29.84 in 10.0 mi SSE 15.0 mph - N/A   Clear
8:35 PM 91.4 °F 41.0 °F 17% 29.84 in 10.0 mi SSE 12.7 mph - N/A   Clear
8:55 PM 91.4 °F 39.2 °F 16% 29.85 in 10.0 mi South 11.5 mph - N/A   Clear
9:15 PM 89.6 °F 39.2 °F 17% 29.86 in 10.0 mi SSE 6.9 mph - N/A   Clear
9:35 PM 87.8 °F 41.0 °F 19% 29.87 in 10.0 mi SSE 4.6 mph - N/A   Clear
9:55 PM 87.8 °F 41.0 °F 19% 29.87 in 10.0 mi SE 6.9 mph - N/A   Clear
10:15 PM 87.8 °F 41.0 °F 19% 29.88 in 10.0 mi SSE 8.1 mph - N/A   Clear
10:35 PM 86.0 °F 39.2 °F 19% 29.88 in 10.0 mi NW 3.5 mph - N/A   Clear
10:55 PM 84.2 °F 39.2 °F 20% 29.88 in 10.0 mi West 5.8 mph - N/A   Clear
11:15 PM 86.0 °F 39.2 °F 19% 29.88 in 10.0 mi SW 5.8 mph - N/A   Clear
11:35 PM 87.8 °F 39.2 °F 18% 29.89 in 10.0 mi South 13.8 mph 19.6 mph N/A   Clear
11:55 PM 87.8 °F 39.2 °F 18% 29.89 in 10.0 mi SSW 9.2 mph - N/A Thunderstorm Clear